createdAt,value
2022-09-09T00:02:01.936Z,9.70
2022-09-09T00:04:31.354Z,9.93
2022-09-09T00:07:15.099Z,9.90
2022-09-09T00:09:46.405Z,7.53
2022-09-09T00:12:35.008Z,8.90
2022-09-09T00:15:12.696Z,12.27
2022-09-09T00:17:56.302Z,9.17
2022-09-09T00:20:55.902Z,14.03
2022-09-09T00:23:33.944Z,9.10
2022-09-09T00:26:04.998Z,8.50
2022-09-09T00:28:37.032Z,11.10
2022-09-09T00:31:19.279Z,12.37
2022-09-09T00:33:48.975Z,9.77
2022-09-09T00:36:23.228Z,15.73
2022-09-09T00:38:54.685Z,10.23
2022-09-09T00:41:39.073Z,8.57
2022-09-09T00:44:15.348Z,13.10
2022-09-09T00:46:56.786Z,12.27
2022-09-09T00:49:44.770Z,12.30
2022-09-09T00:52:14.560Z,9.70
2022-09-09T00:54:54.481Z,12.37
2022-09-09T00:57:29.248Z,12.27
2022-09-09T01:00:03.343Z,11.20
2022-09-09T01:02:43.027Z,11.47
2022-09-09T01:05:25.181Z,11.57
2022-09-09T01:07:55.134Z,11.30
2022-09-09T01:10:54.239Z,11.57
2022-09-09T01:13:31.031Z,9.43
2022-09-09T01:16:01.958Z,12.07
2022-09-09T01:18:35.628Z,13.90
2022-09-09T01:21:06.708Z,11.07
2022-09-09T01:24:06.960Z,9.00
2022-09-09T01:26:39.383Z,10.53
2022-09-09T01:29:21.824Z,12.40
2022-09-09T01:31:56.432Z,12.33
2022-09-09T01:34:26.643Z,11.57
2022-09-09T01:37:13.071Z,14.20
2022-09-09T01:39:42.864Z,23.20
2022-09-09T01:42:12.419Z,12.67
2022-09-09T01:44:39.739Z,13.10
2022-09-09T01:47:07.492Z,15.30
2022-09-09T01:49:34.420Z,17.00
2022-09-09T01:52:01.456Z,15.00
2022-09-09T01:54:35.404Z,13.77
2022-09-09T01:57:34.227Z,12.47
2022-09-09T02:00:12.430Z,12.87
2022-09-09T02:02:54.289Z,11.33
2022-09-09T02:05:31.668Z,11.00
2022-09-09T02:08:07.774Z,11.90
2022-09-09T02:10:57.587Z,13.00
2022-09-09T02:13:25.142Z,13.83
2022-09-09T02:15:51.993Z,13.27
2022-09-09T02:18:26.322Z,10.90
2022-09-09T02:20:54.336Z,15.93
2022-09-09T02:23:24.185Z,10.27
2022-09-09T02:25:54.479Z,10.20
2022-09-09T02:28:24.278Z,10.17
2022-09-09T02:30:56.144Z,11.23
2022-09-09T02:33:34.625Z,10.10
2022-09-09T02:36:08.556Z,12.17
2022-09-09T02:38:41.694Z,13.23
2022-09-09T02:41:11.290Z,11.57
2022-09-09T02:43:40.152Z,16.13
2022-09-09T02:46:41.301Z,15.00
2022-09-09T02:49:12.581Z,11.77
2022-09-09T02:52:12.138Z,13.80
2022-09-09T02:54:40.001Z,19.20
2022-09-09T02:57:14.798Z,14.00
2022-09-09T02:59:44.196Z,13.77
2022-09-09T03:02:12.403Z,13.10
2022-09-09T03:04:40.446Z,12.30
2022-09-09T03:07:07.287Z,12.60
2022-09-09T03:09:38.581Z,12.30
2022-09-09T03:12:05.772Z,9.47
2022-09-09T03:14:32.545Z,12.77
2022-09-09T03:17:04.267Z,11.20
2022-09-09T03:19:31.114Z,15.50
2022-09-09T03:22:01.221Z,16.57
2022-09-09T03:24:27.974Z,13.30
2022-09-09T03:26:56.878Z,14.93
2022-09-09T03:29:23.673Z,10.27
2022-09-09T03:31:51.584Z,14.37
2022-09-09T03:34:18.373Z,11.57
2022-09-09T03:36:45.563Z,14.10
2022-09-09T03:39:12.279Z,15.47
2022-09-09T03:41:39.537Z,10.60
2022-09-09T03:44:06.456Z,12.07
2022-09-09T03:46:33.224Z,10.13
2022-09-09T03:49:00.019Z,11.80
2022-09-09T03:51:28.906Z,10.70
2022-09-09T03:53:59.068Z,15.87
2022-09-09T03:56:25.998Z,10.37
2022-09-09T03:58:53.093Z,10.00
2022-09-09T04:01:22.419Z,9.93
2022-09-09T04:03:49.560Z,10.47
2022-09-09T04:06:16.369Z,15.00
2022-09-09T04:08:43.165Z,10.60
2022-09-09T04:11:13.347Z,9.07
2022-09-09T04:13:40.276Z,12.40
2022-09-09T04:16:07.534Z,14.67
2022-09-09T04:18:35.704Z,16.67
2022-09-09T04:21:07.486Z,10.27
2022-09-09T04:23:35.725Z,15.90
2022-09-09T04:26:05.868Z,11.93
2022-09-09T04:28:35.576Z,14.67
2022-09-09T04:31:19.764Z,10.50
2022-09-09T04:33:47.510Z,10.70
2022-09-09T04:36:15.015Z,11.33
2022-09-09T04:38:42.019Z,9.27
2022-09-09T04:41:11.965Z,11.77
2022-09-09T04:43:39.783Z,15.33
2022-09-09T04:46:07.107Z,9.07
2022-09-09T04:48:36.460Z,9.87
2022-09-09T04:51:05.913Z,13.33
2022-09-09T04:53:35.097Z,10.10
2022-09-09T04:56:10.988Z,14.90
2022-09-09T04:58:38.690Z,11.77
2022-09-09T05:01:15.024Z,8.20
2022-09-09T05:03:42.238Z,9.73
2022-09-09T05:06:11.786Z,17.03
2022-09-09T05:08:39.719Z,8.93
2022-09-09T05:11:22.928Z,12.60
2022-09-09T05:13:52.702Z,7.80
2022-09-09T05:16:22.533Z,11.90
2022-09-09T05:18:51.629Z,15.03
2022-09-09T05:21:20.094Z,13.10
2022-09-09T05:23:47.407Z,9.10
2022-09-09T05:26:19.631Z,13.37
2022-09-09T05:28:47.091Z,9.50
2022-09-09T05:31:18.655Z,15.03
2022-09-09T05:33:49.223Z,12.60
2022-09-09T05:36:21.248Z,12.23
2022-09-09T05:38:48.845Z,9.13
2022-09-09T05:41:18.860Z,11.47
2022-09-09T05:43:49.863Z,13.47
2022-09-09T05:46:22.478Z,7.97
2022-09-09T05:48:53.471Z,10.13
2022-09-09T05:51:23.630Z,8.07
2022-09-09T05:53:50.513Z,9.73
2022-09-09T05:56:29.026Z,15.80
2022-09-09T05:58:57.157Z,13.93
2022-09-09T06:01:35.221Z,21.70
2022-09-09T06:04:04.971Z,16.37
2022-09-09T06:06:37.658Z,13.60
2022-09-09T06:09:07.769Z,9.53
2022-09-09T06:11:36.960Z,6.50
2022-09-09T06:14:04.347Z,7.30
2022-09-09T06:16:33.668Z,21.47
2022-09-09T06:19:00.900Z,7.80
2022-09-09T06:21:37.988Z,13.13
2022-09-09T06:24:08.331Z,10.30
2022-09-09T06:26:38.075Z,9.20
2022-09-09T06:29:08.177Z,7.50
2022-09-09T06:31:37.868Z,5.30
2022-09-09T06:34:09.445Z,5.50
2022-09-09T06:36:39.200Z,5.07
2022-09-09T06:39:10.860Z,6.60
2022-09-09T06:41:40.976Z,7.23
2022-09-09T06:44:10.057Z,5.80
2022-09-09T06:46:36.802Z,5.30
2022-09-09T06:49:04.255Z,5.90
2022-09-09T06:51:35.883Z,5.37
2022-09-09T06:54:04.116Z,4.53
2022-09-09T06:56:33.786Z,3.47
2022-09-09T06:59:03.467Z,10.53
2022-09-09T07:01:32.783Z,5.10
2022-09-09T07:04:00.958Z,7.10
2022-09-09T07:06:32.305Z,4.10
2022-09-09T07:09:10.779Z,6.20
2022-09-09T07:11:49.043Z,4.77
2022-09-09T07:14:18.584Z,4.50
2022-09-09T07:16:46.807Z,5.70
2022-09-09T07:19:15.396Z,8.13
2022-09-09T07:21:42.872Z,6.70
2022-09-09T07:24:11.606Z,3.57
2022-09-09T07:26:40.409Z,5.10
2022-09-09T07:29:07.949Z,5.10
2022-09-09T07:31:40.844Z,6.67
2022-09-09T07:34:07.976Z,3.90
2022-09-09T07:36:43.148Z,4.43
2022-09-09T07:39:14.547Z,9.47
2022-09-09T07:41:47.150Z,9.07
2022-09-09T07:44:20.083Z,10.23
2022-09-09T07:46:47.385Z,5.73
2022-09-09T07:49:14.510Z,4.60
2022-09-09T07:51:44.335Z,4.10
2022-09-09T07:54:14.196Z,4.43
2022-09-09T07:56:43.036Z,2.63
2022-09-09T07:59:11.472Z,9.20
2022-09-09T08:01:41.171Z,3.47
2022-09-09T08:04:11.640Z,2.53
2022-09-09T08:06:45.774Z,2.93
2022-09-09T08:09:16.403Z,2.20
2022-09-09T08:11:46.770Z,3.90
2022-09-09T08:14:14.276Z,2.30
2022-09-09T08:16:44.682Z,1.50
2022-09-09T08:19:16.293Z,2.87
2022-09-09T08:21:44.884Z,1.60
2022-09-09T08:24:12.918Z,3.50
2022-09-09T08:26:42.639Z,3.53
2022-09-09T08:29:14.820Z,3.57
2022-09-09T08:31:47.920Z,3.73
2022-09-09T08:34:15.998Z,2.40
2022-09-09T08:36:47.210Z,3.50
2022-09-09T08:39:19.022Z,4.50
2022-09-09T08:42:03.910Z,5.13
2022-09-09T08:45:08.172Z,2.20
2022-09-09T08:47:58.389Z,2.77
2022-09-09T08:50:36.508Z,8.70
2022-09-09T08:53:17.359Z,1.93
2022-09-09T08:55:50.288Z,3.73
2022-09-09T08:58:22.968Z,4.87
2022-09-09T09:01:03.346Z,2.93
2022-09-09T09:04:19.067Z,1.60
2022-09-09T09:07:01.296Z,6.30
2022-09-09T09:10:24.260Z,3.77
2022-09-09T09:12:58.368Z,2.87
2022-09-09T09:15:37.347Z,3.90
2022-09-09T09:18:05.683Z,1.43
2022-09-09T09:20:47.428Z,1.50
2022-09-09T09:23:23.665Z,4.20
2022-09-09T09:25:56.314Z,2.00
2022-09-09T09:28:27.002Z,4.27
2022-09-09T09:31:12.654Z,1.63
2022-09-09T09:33:50.553Z,1.57
2022-09-09T09:36:17.746Z,3.93
2022-09-09T09:41:49.007Z,3.43
2022-09-09T09:44:28.385Z,1.87
2022-09-09T09:47:07.945Z,1.80
2022-09-09T09:49:34.959Z,1.40
2022-09-09T09:52:03.656Z,3.43
2022-09-09T09:54:34.951Z,3.97
2022-09-09T09:57:17.263Z,2.60
2022-09-09T09:59:44.453Z,2.60
2022-09-09T10:02:26.430Z,4.03
2022-09-09T10:05:17.239Z,3.10
2022-09-09T10:07:46.885Z,2.47
2022-09-09T10:10:21.484Z,2.57
2022-09-09T10:13:03.116Z,4.03
2022-09-09T10:16:10.916Z,1.63
2022-09-09T10:18:54.002Z,2.17
2022-09-09T10:21:36.290Z,2.00
2022-09-09T10:24:12.098Z,4.00
2022-09-09T10:27:08.154Z,4.13
2022-09-09T10:30:03.276Z,6.00
2022-09-09T10:32:38.274Z,1.00
2022-09-09T10:35:23.972Z,2.23
2022-09-09T10:38:12.085Z,1.80
2022-09-09T10:40:54.216Z,1.63
2022-09-09T10:43:35.514Z,2.90
2022-09-09T10:46:28.347Z,1.47
2022-09-09T10:49:10.602Z,2.20
2022-09-09T10:51:59.055Z,7.83
2022-09-09T10:54:52.915Z,2.23
2022-09-09T10:57:44.970Z,1.90
2022-09-09T11:00:22.245Z,5.07
2022-09-09T11:03:05.302Z,4.10
2022-09-09T11:05:58.560Z,2.70
2022-09-09T11:08:31.018Z,1.20
2022-09-09T11:11:05.024Z,2.20
2022-09-09T11:13:52.942Z,2.70
2022-09-09T11:16:42.822Z,1.90
2022-09-09T11:19:36.516Z,1.77
2022-09-09T11:22:19.268Z,2.30
2022-09-09T11:24:52.694Z,2.13
2022-09-09T11:27:52.049Z,2.60
2022-09-09T11:30:44.155Z,7.73
2022-09-09T11:33:11.039Z,4.00
2022-09-09T11:36:08.525Z,4.90
2022-09-09T11:38:52.320Z,2.20
2022-09-09T11:41:22.068Z,0.80
2022-09-09T11:43:53.210Z,1.27
2022-09-09T11:46:23.898Z,2.40
2022-09-09T11:49:05.111Z,4.03
2022-09-09T11:51:34.292Z,1.63
2022-09-09T11:54:03.970Z,1.87
2022-09-09T11:56:44.456Z,2.50
2022-09-09T11:59:32.423Z,3.10
2022-09-09T12:02:13.744Z,3.23
2022-09-09T12:04:45.850Z,1.53
2022-09-09T12:07:12.634Z,2.00
2022-09-09T12:09:52.812Z,5.20
2022-09-09T12:12:27.857Z,2.10
2022-09-09T12:15:18.440Z,2.33
2022-09-09T12:17:47.545Z,1.80
2022-09-09T12:20:18.976Z,1.97
2022-09-09T12:22:57.899Z,2.63
2022-09-09T12:25:26.784Z,1.60
2022-09-09T12:27:59.376Z,0.83
2022-09-09T12:30:51.230Z,1.10
2022-09-09T12:33:20.229Z,1.53
2022-09-09T12:35:55.415Z,2.63
2022-09-09T12:38:39.721Z,1.40
2022-09-09T12:41:07.035Z,2.20
2022-09-09T12:43:34.042Z,2.30
2022-09-09T12:46:19.064Z,1.27
2022-09-09T12:48:46.718Z,2.33
2022-09-09T12:51:30.424Z,1.27
2022-09-09T12:53:57.811Z,1.00
2022-09-09T12:56:28.106Z,1.63
2022-09-09T12:58:57.248Z,6.17
2022-09-09T13:01:33.271Z,1.23
2022-09-09T13:04:03.347Z,1.70
2022-09-09T13:06:35.213Z,0.90
2022-09-09T13:09:03.238Z,1.33
2022-09-09T13:11:59.956Z,2.17
2022-09-09T13:14:33.815Z,3.10
2022-09-09T13:17:04.761Z,1.93
2022-09-09T13:19:36.456Z,3.20
2022-09-09T13:22:36.540Z,2.37
2022-09-09T13:25:12.818Z,2.73
2022-09-09T13:27:53.904Z,1.43
2022-09-09T13:30:33.270Z,2.77
2022-09-09T13:33:15.604Z,5.03
2022-09-09T13:35:48.289Z,8.10
2022-09-09T13:38:18.717Z,3.00
2022-09-09T13:41:05.618Z,1.33
2022-09-09T13:43:43.736Z,1.80
2022-09-09T13:46:46.329Z,3.50
2022-09-09T13:49:13.044Z,3.83
2022-09-09T13:51:41.325Z,0.87
2022-09-09T13:54:11.386Z,1.17
2022-09-09T13:56:40.114Z,2.17
2022-09-09T13:59:11.943Z,1.60
2022-09-09T14:01:38.821Z,0.60
2022-09-09T14:04:11.553Z,2.05
2022-09-09T14:06:40.222Z,1.30
2022-09-09T14:09:08.635Z,0.80
2022-09-09T14:11:35.449Z,3.90
2022-09-09T14:14:02.302Z,1.47
2022-09-09T14:16:30.458Z,1.23
2022-09-09T14:19:02.198Z,1.80
2022-09-09T14:21:29.637Z,1.90
2022-09-09T14:23:58.986Z,1.10
2022-09-09T14:26:26.162Z,3.90
2022-09-09T14:28:56.110Z,4.63
2022-09-09T14:31:26.458Z,3.47
2022-09-09T14:33:53.789Z,1.25
2022-09-09T14:36:20.812Z,0.80
2022-09-09T14:38:47.784Z,0.77
2022-09-09T14:41:20.751Z,1.10
2022-09-09T14:43:47.812Z,1.67
2022-09-09T14:46:19.451Z,1.17
2022-09-09T14:48:49.577Z,1.37
2022-09-09T14:51:28.219Z,1.90
2022-09-09T14:53:58.192Z,2.30
2022-09-09T14:56:30.808Z,3.10
2022-09-09T14:58:59.584Z,2.87
2022-09-09T15:01:30.332Z,2.07
2022-09-09T15:04:01.634Z,1.10
2022-09-09T15:06:34.165Z,1.27
2022-09-09T15:09:04.221Z,2.90
2022-09-09T15:11:38.520Z,1.07
2022-09-09T15:14:09.578Z,1.63
2022-09-09T15:16:36.772Z,1.00
2022-09-09T15:19:04.590Z,2.50
2022-09-09T15:21:35.484Z,1.70
2022-09-09T15:24:02.312Z,3.33
2022-09-09T15:26:31.379Z,1.73
2022-09-09T15:29:00.516Z,1.50
2022-09-09T15:31:32.973Z,8.03
2022-09-09T15:34:08.958Z,2.60
2022-09-09T15:36:37.052Z,1.43
2022-09-09T15:39:07.072Z,1.27
2022-09-09T15:41:34.599Z,4.30
2022-09-09T15:44:01.789Z,1.90
2022-09-09T15:46:33.149Z,1.40
2022-09-09T15:49:04.939Z,3.03
2022-09-09T15:51:42.369Z,1.47
2022-09-09T15:54:13.342Z,2.40
2022-09-09T15:56:41.383Z,1.90
2022-09-09T15:59:08.667Z,1.13
2022-09-09T16:01:40.514Z,1.20
2022-09-09T16:04:12.074Z,1.87
2022-09-09T16:06:40.075Z,1.10
2022-09-09T16:09:08.652Z,1.10
2022-09-09T16:11:37.828Z,2.70
2022-09-09T16:14:06.315Z,1.60
2022-09-09T16:16:34.011Z,1.60
2022-09-09T16:19:05.347Z,1.80
2022-09-09T16:21:36.129Z,3.00
2022-09-09T16:24:06.459Z,3.13
2022-09-09T16:26:35.744Z,2.30
2022-09-09T16:29:05.543Z,2.33
2022-09-09T16:31:33.309Z,2.43
2022-09-09T16:34:00.712Z,2.60
2022-09-09T16:36:32.920Z,1.10
2022-09-09T16:39:05.270Z,1.63
2022-09-09T16:41:32.762Z,3.83
2022-09-09T16:44:04.153Z,2.30
2022-09-09T16:46:39.834Z,1.83
2022-09-09T16:49:12.748Z,1.27
2022-09-09T16:51:54.220Z,3.97
2022-09-09T16:54:21.409Z,3.03
2022-09-09T16:56:49.268Z,1.17
2022-09-09T16:59:18.677Z,1.40
2022-09-09T17:01:47.385Z,6.00
2022-09-09T17:04:21.150Z,1.17
2022-09-09T17:06:50.357Z,1.20
2022-09-09T17:09:18.106Z,0.80
2022-09-09T17:11:48.308Z,2.53
2022-09-09T17:14:17.534Z,4.20
2022-09-09T17:16:44.682Z,2.83
2022-09-09T17:19:12.935Z,5.90
2022-09-09T17:22:00.066Z,6.47
2022-09-09T17:24:34.787Z,1.90
2022-09-09T17:27:03.314Z,5.63
2022-09-09T17:29:30.268Z,3.43
2022-09-09T17:31:59.618Z,4.50
2022-09-09T17:34:26.501Z,2.70
2022-09-09T17:36:53.258Z,1.20
2022-09-09T17:39:20.150Z,3.30
2022-09-09T17:41:47.126Z,2.90
2022-09-09T17:44:16.763Z,4.70
2022-09-09T17:46:44.216Z,1.53
2022-09-09T17:49:16.228Z,1.03
2022-09-09T17:51:47.560Z,2.03
2022-09-09T17:54:17.507Z,2.60
2022-09-09T17:56:47.901Z,1.83
2022-09-09T17:59:17.598Z,1.30
2022-09-09T18:01:49.650Z,1.00
2022-09-09T18:04:17.954Z,1.53
2022-09-09T18:06:47.907Z,1.10
2022-09-09T18:09:17.918Z,2.10
2022-09-09T18:11:49.857Z,5.10
2022-09-09T18:14:22.709Z,1.77
2022-09-09T18:16:50.266Z,2.47
2022-09-09T18:19:23.002Z,2.63
2022-09-09T18:21:50.948Z,2.30
2022-09-09T18:24:19.845Z,3.63
2022-09-09T18:26:49.815Z,1.60
2022-09-09T18:29:23.669Z,2.07
2022-09-09T18:31:54.441Z,1.20
2022-09-09T18:34:25.612Z,2.00
2022-09-09T18:36:54.981Z,2.17
2022-09-09T18:39:25.154Z,4.90
2022-09-09T18:41:55.338Z,2.03
2022-09-09T18:44:27.015Z,1.93
2022-09-09T18:46:56.703Z,1.63
2022-09-09T18:49:24.733Z,2.23
2022-09-09T18:51:52.429Z,1.27
2022-09-09T18:54:23.654Z,2.10
2022-09-09T18:56:51.134Z,1.63
2022-09-09T18:59:23.699Z,1.30
2022-09-09T19:01:52.613Z,4.53
2022-09-09T19:04:22.232Z,1.13
2022-09-09T19:06:50.271Z,1.60
2022-09-09T19:09:21.760Z,3.50
2022-09-09T19:11:48.556Z,1.60
2022-09-09T19:14:17.995Z,1.93
2022-09-09T19:16:47.753Z,4.83
2022-09-09T19:19:29.274Z,1.73
2022-09-09T19:21:57.780Z,1.27
2022-09-09T19:24:30.270Z,4.53
2022-09-09T19:27:01.740Z,2.93
2022-09-09T19:29:31.243Z,2.00
2022-09-09T19:34:46.863Z,1.90
2022-09-09T19:37:18.159Z,3.07
2022-09-09T19:39:46.484Z,1.63
2022-09-09T19:42:13.408Z,1.20
2022-09-09T19:44:41.425Z,3.10
2022-09-09T19:47:08.325Z,2.50
2022-09-09T19:49:37.225Z,1.87
2022-09-09T19:52:04.868Z,1.83
2022-09-09T19:54:34.032Z,3.97
2022-09-09T19:57:03.520Z,1.93
2022-09-09T19:59:30.496Z,2.53
2022-09-09T20:01:58.400Z,1.73
2022-09-09T20:04:26.170Z,1.87
2022-09-09T20:06:53.908Z,1.90
2022-09-09T20:09:21.726Z,1.03
2022-09-09T20:11:49.560Z,1.40
2022-09-09T20:14:18.601Z,4.00
2022-09-09T20:16:47.943Z,2.67
2022-09-09T20:19:21.407Z,1.00
2022-09-09T20:21:52.538Z,2.20
2022-09-09T20:24:20.487Z,5.80
2022-09-09T20:26:48.946Z,3.57
2022-09-09T20:29:19.407Z,1.57
2022-09-09T20:31:47.416Z,1.50
2022-09-09T20:34:18.602Z,1.67
2022-09-09T20:36:46.109Z,1.10
2022-09-09T20:39:16.007Z,2.00
2022-09-09T20:41:46.598Z,3.23
2022-09-09T20:44:21.791Z,1.83
2022-09-09T20:46:50.829Z,2.20
2022-09-09T20:49:20.470Z,4.87
2022-09-09T20:51:53.288Z,2.40
2022-09-09T20:54:25.864Z,1.50
2022-09-09T20:56:55.451Z,4.03
2022-09-09T20:59:25.330Z,6.20
2022-09-09T21:01:53.255Z,1.27
2022-09-09T21:04:21.200Z,2.83
2022-09-09T21:06:50.156Z,1.40
2022-09-09T21:09:17.852Z,1.57
2022-09-09T21:11:44.842Z,1.53
2022-09-09T21:14:12.549Z,2.77
2022-09-09T21:16:39.412Z,2.97
2022-09-09T21:19:06.833Z,3.90
2022-09-09T21:21:33.745Z,1.67
2022-09-09T21:24:00.852Z,2.80
2022-09-09T21:26:28.111Z,2.10
2022-09-09T21:28:55.950Z,1.20
2022-09-09T21:31:27.908Z,2.20
2022-09-09T21:33:57.905Z,3.53
2022-09-09T21:36:25.402Z,1.30
2022-09-09T21:38:52.197Z,3.97
2022-09-09T21:41:19.346Z,1.03
2022-09-09T21:43:50.936Z,1.13
2022-09-09T21:46:20.880Z,6.77
2022-09-09T21:48:47.690Z,2.80
2022-09-09T21:51:19.555Z,3.23
2022-09-09T21:53:48.451Z,1.60
2022-09-09T21:56:21.903Z,3.43
2022-09-09T21:58:48.624Z,1.30
2022-09-09T22:01:17.950Z,2.10
2022-09-09T22:03:45.697Z,1.87
2022-09-09T22:06:15.150Z,1.67
2022-09-09T22:08:44.565Z,5.10
2022-09-09T22:11:18.833Z,1.10
2022-09-09T22:13:48.902Z,1.07
2022-09-09T22:16:17.948Z,2.13
2022-09-09T22:18:54.637Z,1.00
2022-09-09T22:21:22.746Z,3.00
2022-09-09T22:23:58.522Z,1.30
2022-09-09T22:26:27.288Z,4.83
2022-09-09T22:28:54.086Z,5.23
2022-09-09T22:31:22.976Z,2.47
2022-09-09T22:33:51.078Z,1.77
2022-09-09T22:36:19.770Z,0.80
2022-09-09T22:38:47.738Z,1.20
2022-09-09T22:41:17.145Z,2.40
2022-09-09T22:43:44.719Z,3.00
2022-09-09T22:46:12.471Z,1.83
2022-09-09T22:48:40.131Z,1.77
2022-09-09T22:51:12.125Z,1.90
2022-09-09T22:53:44.667Z,7.33
2022-09-09T22:56:21.230Z,2.33
2022-09-09T22:58:48.195Z,1.20
2022-09-09T23:01:19.885Z,2.03
2022-09-09T23:03:50.539Z,1.03
2022-09-09T23:06:26.001Z,2.97
2022-09-09T23:08:57.468Z,1.47
2022-09-09T23:11:27.930Z,1.33
2022-09-09T23:14:00.183Z,1.70
2022-09-09T23:16:38.294Z,2.50
2022-09-09T23:19:09.969Z,1.87
2022-09-09T23:21:38.305Z,1.90
2022-09-09T23:24:07.034Z,1.83
2022-09-09T23:26:34.752Z,6.03
2022-09-09T23:29:02.440Z,7.73
2022-09-09T23:31:33.085Z,5.30
2022-09-09T23:34:01.079Z,2.17
2022-09-09T23:36:33.764Z,2.23
2022-09-09T23:39:06.886Z,5.13
2022-09-09T23:41:37.406Z,3.40
2022-09-09T23:44:04.833Z,3.00
2022-09-09T23:46:32.903Z,1.80
2022-09-09T23:49:00.518Z,1.63
2022-09-09T23:51:30.457Z,3.30
2022-09-09T23:54:01.578Z,4.40
2022-09-09T23:56:32.225Z,2.83
2022-09-09T23:59:01.098Z,1.70
